GWTJC LDSB-LYPG
Flight info
| Callsign | GWTJC |
|---|---|
| Flight time | 1h 3m |
| Altitude | 9000 |
| Route | SIPAL DCT TIKSA DCT NERRA DCT BIGLO |
| Aircraft | DA42/L-SBDGRY/S |
Departure
| Time | 2026-04-29 12:20 |
|---|---|
| Airport | Brač Airport (LDSB) |
Arrival
| Time | 2026-04-29 13:24 |
|---|---|
| Airport | Podgorica Airport / Podgorica Golubovci Airbase (LYPG) |
| Time | Latitude | Longitude | Altitude | Speed | Heading |
|---|---|---|---|---|---|
| 2026-04-29 11:47 | 43.28822 | 16.68019 | 1726 ft | 0 kts | 90° |
| 2026-04-29 12:15 | 43.28818 | 16.68026 | 1726 ft | 1 kts | 172° |
| 2026-04-29 12:15 | 43.28813 | 16.68022 | 1726 ft | 3 kts | 216° |
| 2026-04-29 12:15 | 43.28784 | 16.67992 | 1729 ft | 5 kts | 215° |
| 2026-04-29 12:16 | 43.28758 | 16.67977 | 1730 ft | 5 kts | 145° |
| 2026-04-29 12:16 | 43.28744 | 16.68003 | 1730 ft | 0 kts | 126° |
| 2026-04-29 12:16 | 43.28744 | 16.68004 | 1730 ft | 0 kts | 126° |
| 2026-04-29 12:18 | 43.28741 | 16.68009 | 1730 ft | 3 kts | 126° |
| 2026-04-29 12:18 | 43.28717 | 16.68056 | 1730 ft | 7 kts | 122° |
| 2026-04-29 12:18 | 43.28734 | 16.68128 | 1726 ft | 12 kts | 34° |
| 2026-04-29 12:18 | 43.28823 | 16.68216 | 1717 ft | 16 kts | 36° |
| 2026-04-29 12:19 | 43.28841 | 16.68239 | 1716 ft | 6 kts | 230° |
| 2026-04-29 12:19 | 43.28827 | 16.68218 | 1717 ft | 0 kts | 216° |
| 2026-04-29 12:19 | 43.28772 | 16.68164 | 1722 ft | 35 kts | 216° |
| 2026-04-29 12:20 | 43.28424 | 16.67833 | 1745 ft | 83 kts | 214° |
| 2026-04-29 12:20 | 43.27927 | 16.67339 | 1980 ft | 94 kts | 213° |
| 2026-04-29 12:20 | 43.27370 | 16.66815 | 2305 ft | 99 kts | 212° |
| 2026-04-29 12:20 | 43.26795 | 16.66284 | 2716 ft | 100 kts | 212° |
| 2026-04-29 12:21 | 43.26203 | 16.65752 | 3253 ft | 102 kts | 214° |
| 2026-04-29 12:21 | 43.25642 | 16.65164 | 3636 ft | 102 kts | 216° |
| 2026-04-29 12:21 | 43.25068 | 16.64591 | 3931 ft | 103 kts | 212° |
| 2026-04-29 12:21 | 43.24476 | 16.64009 | 4201 ft | 104 kts | 213° |
| 2026-04-29 12:22 | 43.23896 | 16.63428 | 4517 ft | 102 kts | 212° |
| 2026-04-29 12:22 | 43.23291 | 16.62900 | 4792 ft | 104 kts | 211° |
| 2026-04-29 12:22 | 43.22688 | 16.62342 | 5077 ft | 105 kts | 213° |
| 2026-04-29 12:22 | 43.22052 | 16.61904 | 5391 ft | 102 kts | 188° |
| 2026-04-29 12:23 | 43.21371 | 16.62174 | 5656 ft | 108 kts | 148° |
| 2026-04-29 12:23 | 43.20757 | 16.62791 | 5913 ft | 110 kts | 148° |
| 2026-04-29 12:23 | 43.20147 | 16.63413 | 6192 ft | 110 kts | 149° |
| 2026-04-29 12:23 | 43.19535 | 16.64056 | 6522 ft | 111 kts | 147° |
| 2026-04-29 12:24 | 43.18921 | 16.64708 | 6834 ft | 112 kts | 148° |
| 2026-04-29 12:24 | 43.18303 | 16.65368 | 7144 ft | 113 kts | 151° |
| 2026-04-29 12:24 | 43.17662 | 16.66008 | 7490 ft | 114 kts | 149° |
| 2026-04-29 12:24 | 43.17043 | 16.66699 | 7819 ft | 116 kts | 148° |
| 2026-04-29 12:25 | 43.16401 | 16.67381 | 8096 ft | 118 kts | 150° |
| 2026-04-29 12:25 | 43.15763 | 16.68088 | 8422 ft | 118 kts | 147° |
| 2026-04-29 12:25 | 43.14480 | 16.69512 | 8949 ft | 121 kts | 147° |
| 2026-04-29 12:26 | 43.13842 | 16.70377 | 9002 ft | 144 kts | 126° |
| 2026-04-29 12:26 | 43.13573 | 16.71782 | 9063 ft | 164 kts | 92° |
| 2026-04-29 12:26 | 43.13616 | 16.73414 | 9082 ft | 178 kts | 88° |
| 2026-04-29 12:26 | 43.13698 | 16.75136 | 9049 ft | 182 kts | 88° |
| 2026-04-29 12:27 | 43.13762 | 16.76847 | 9026 ft | 178 kts | 90° |
| 2026-04-29 12:27 | 43.13773 | 16.78542 | 8967 ft | 178 kts | 92° |
| 2026-04-29 12:27 | 43.13761 | 16.80223 | 8977 ft | 176 kts | 92° |
| 2026-04-29 12:27 | 43.13744 | 16.81900 | 8973 ft | 176 kts | 91° |
| 2026-04-29 12:28 | 43.13743 | 16.83572 | 8973 ft | 175 kts | 91° |
| 2026-04-29 12:28 | 43.13743 | 16.85238 | 8968 ft | 174 kts | 91° |
| 2026-04-29 12:28 | 43.13737 | 16.86890 | 8977 ft | 173 kts | 91° |
| 2026-04-29 12:28 | 43.13731 | 16.88535 | 8968 ft | 172 kts | 91° |
| 2026-04-29 12:29 | 43.13726 | 16.90158 | 8967 ft | 170 kts | 91° |
| 2026-04-29 12:29 | 43.13721 | 16.91776 | 8968 ft | 170 kts | 91° |
| 2026-04-29 12:29 | 43.13715 | 16.93395 | 8974 ft | 171 kts | 91° |
| 2026-04-29 12:29 | 43.13710 | 16.95030 | 8971 ft | 173 kts | 91° |
| 2026-04-29 12:30 | 43.13706 | 16.96682 | 8971 ft | 174 kts | 91° |
| 2026-04-29 12:30 | 43.13700 | 16.98337 | 8971 ft | 174 kts | 91° |
| 2026-04-29 12:30 | 43.13696 | 16.99998 | 8966 ft | 175 kts | 91° |
| 2026-04-29 12:30 | 43.13692 | 17.01660 | 8960 ft | 174 kts | 91° |
| 2026-04-29 12:31 | 43.13682 | 17.03302 | 8961 ft | 171 kts | 92° |
| 2026-04-29 12:31 | 43.13672 | 17.04935 | 8967 ft | 172 kts | 91° |
| 2026-04-29 12:31 | 43.13655 | 17.06574 | 8959 ft | 172 kts | 97° |
| 2026-04-29 12:31 | 43.13289 | 17.08107 | 8969 ft | 169 kts | 123° |
| 2026-04-29 12:32 | 43.12642 | 17.09455 | 8973 ft | 171 kts | 127° |
| 2026-04-29 12:32 | 43.11971 | 17.10802 | 8972 ft | 172 kts | 127° |
| 2026-04-29 12:32 | 43.11302 | 17.12160 | 8964 ft | 171 kts | 127° |
| 2026-04-29 12:32 | 43.10648 | 17.13485 | 8961 ft | 169 kts | 127° |
| 2026-04-29 12:33 | 43.09993 | 17.14806 | 8960 ft | 167 kts | 127° |
| 2026-04-29 12:33 | 43.09345 | 17.16116 | 8964 ft | 166 kts | 127° |
| 2026-04-29 12:33 | 43.08701 | 17.17420 | 8960 ft | 165 kts | 127° |
| 2026-04-29 12:33 | 43.08057 | 17.18721 | 8959 ft | 165 kts | 127° |
| 2026-04-29 12:34 | 43.07416 | 17.20018 | 8959 ft | 165 kts | 127° |
| 2026-04-29 12:34 | 43.06774 | 17.21315 | 8962 ft | 165 kts | 127° |
| 2026-04-29 12:34 | 43.06133 | 17.22609 | 8959 ft | 164 kts | 127° |
| 2026-04-29 12:34 | 43.05493 | 17.23901 | 8958 ft | 164 kts | 127° |
| 2026-04-29 12:35 | 43.04854 | 17.25190 | 8958 ft | 164 kts | 127° |
| 2026-04-29 12:35 | 43.04215 | 17.26479 | 8959 ft | 165 kts | 127° |
| 2026-04-29 12:35 | 43.03569 | 17.27781 | 8956 ft | 166 kts | 127° |
| 2026-04-29 12:35 | 43.02918 | 17.29092 | 8964 ft | 167 kts | 127° |
| 2026-04-29 12:36 | 43.02264 | 17.30407 | 8969 ft | 167 kts | 127° |
| 2026-04-29 12:36 | 43.01609 | 17.31726 | 8967 ft | 168 kts | 127° |
| 2026-04-29 12:36 | 43.00960 | 17.33053 | 8962 ft | 168 kts | 127° |
| 2026-04-29 12:36 | 43.00312 | 17.34382 | 8961 ft | 168 kts | 127° |
| 2026-04-29 12:37 | 42.99662 | 17.35713 | 8963 ft | 168 kts | 127° |
| 2026-04-29 12:37 | 42.99011 | 17.37041 | 8962 ft | 168 kts | 127° |
| 2026-04-29 12:37 | 42.98359 | 17.38373 | 8966 ft | 169 kts | 127° |
| 2026-04-29 12:37 | 42.97707 | 17.39703 | 8965 ft | 169 kts | 127° |
| 2026-04-29 12:38 | 42.97052 | 17.41039 | 8961 ft | 169 kts | 127° |
| 2026-04-29 12:38 | 42.96398 | 17.42372 | 8961 ft | 169 kts | 127° |
| 2026-04-29 12:38 | 42.95744 | 17.43704 | 8961 ft | 169 kts | 127° |
| 2026-04-29 12:38 | 42.95098 | 17.45020 | 8962 ft | 169 kts | 127° |
| 2026-04-29 12:39 | 42.94443 | 17.46355 | 8965 ft | 169 kts | 127° |
| 2026-04-29 12:39 | 42.93788 | 17.47688 | 8967 ft | 169 kts | 127° |
| 2026-04-29 12:39 | 42.93131 | 17.49023 | 8960 ft | 169 kts | 127° |
| 2026-04-29 12:39 | 42.92474 | 17.50358 | 8959 ft | 170 kts | 127° |
| 2026-04-29 12:40 | 42.91817 | 17.51695 | 8959 ft | 169 kts | 127° |
| 2026-04-29 12:40 | 42.91160 | 17.53029 | 8961 ft | 170 kts | 127° |
| 2026-04-29 12:40 | 42.90487 | 17.54391 | 8970 ft | 176 kts | 127° |
| 2026-04-29 12:40 | 42.89799 | 17.55803 | 8967 ft | 180 kts | 126° |
| 2026-04-29 12:41 | 42.89110 | 17.57221 | 8966 ft | 178 kts | 126° |
| 2026-04-29 12:41 | 42.88434 | 17.58626 | 8964 ft | 176 kts | 126° |
| 2026-04-29 12:41 | 42.87772 | 17.60005 | 8969 ft | 173 kts | 126° |
| 2026-04-29 12:41 | 42.87107 | 17.61374 | 8963 ft | 174 kts | 127° |
| 2026-04-29 12:42 | 42.86440 | 17.62741 | 8965 ft | 173 kts | 126° |
| 2026-04-29 12:42 | 42.85777 | 17.64105 | 8962 ft | 172 kts | 126° |
| 2026-04-29 12:42 | 42.85116 | 17.65464 | 8963 ft | 172 kts | 126° |
| 2026-04-29 12:42 | 42.84463 | 17.66814 | 8956 ft | 169 kts | 126° |
| 2026-04-29 12:43 | 42.83814 | 17.68147 | 8966 ft | 169 kts | 126° |
| 2026-04-29 12:43 | 42.83159 | 17.69491 | 8965 ft | 171 kts | 126° |
| 2026-04-29 12:43 | 42.82501 | 17.70843 | 8960 ft | 170 kts | 126° |
| 2026-04-29 12:43 | 42.81849 | 17.72197 | 8967 ft | 172 kts | 126° |
| 2026-04-29 12:44 | 42.81187 | 17.73546 | 8962 ft | 170 kts | 127° |
| 2026-04-29 12:44 | 42.80531 | 17.74882 | 8961 ft | 169 kts | 126° |
| 2026-04-29 12:44 | 42.79883 | 17.76212 | 8965 ft | 168 kts | 126° |
| 2026-04-29 12:44 | 42.79239 | 17.77534 | 8967 ft | 167 kts | 126° |
| 2026-04-29 12:45 | 42.78592 | 17.78857 | 8966 ft | 169 kts | 126° |
| 2026-04-29 12:45 | 42.77943 | 17.80191 | 8960 ft | 168 kts | 126° |
| 2026-04-29 12:45 | 42.77297 | 17.81513 | 8965 ft | 167 kts | 126° |
| 2026-04-29 12:45 | 42.76654 | 17.82829 | 8965 ft | 167 kts | 126° |
| 2026-04-29 12:46 | 42.76012 | 17.84143 | 8963 ft | 167 kts | 126° |
| 2026-04-29 12:46 | 42.75369 | 17.85457 | 8966 ft | 167 kts | 126° |
| 2026-04-29 12:46 | 42.74729 | 17.86766 | 8957 ft | 166 kts | 126° |
| 2026-04-29 12:46 | 42.74090 | 17.88068 | 8962 ft | 165 kts | 126° |
| 2026-04-29 12:47 | 42.73453 | 17.89368 | 8958 ft | 165 kts | 126° |
| 2026-04-29 12:47 | 42.72827 | 17.90647 | 8963 ft | 165 kts | 126° |
| 2026-04-29 12:47 | 42.72190 | 17.91946 | 8962 ft | 165 kts | 126° |
| 2026-04-29 12:47 | 42.71562 | 17.93227 | 8962 ft | 166 kts | 126° |
| 2026-04-29 12:48 | 42.70916 | 17.94542 | 8961 ft | 168 kts | 126° |
| 2026-04-29 12:48 | 42.70267 | 17.95864 | 8961 ft | 169 kts | 126° |
| 2026-04-29 12:48 | 42.69614 | 17.97192 | 8964 ft | 169 kts | 126° |
| 2026-04-29 12:48 | 42.68960 | 17.98523 | 8967 ft | 170 kts | 126° |
| 2026-04-29 12:49 | 42.68303 | 17.99860 | 8964 ft | 170 kts | 126° |
| 2026-04-29 12:49 | 42.67644 | 18.01200 | 8971 ft | 172 kts | 126° |
| 2026-04-29 12:49 | 42.66976 | 18.02558 | 8963 ft | 173 kts | 126° |
| 2026-04-29 12:49 | 42.66308 | 18.03916 | 8966 ft | 172 kts | 126° |
| 2026-04-29 12:50 | 42.65859 | 18.04828 | 8963 ft | 172 kts | 126° |
| 2026-04-29 12:50 | 42.65203 | 18.06159 | 8962 ft | 172 kts | 126° |
| 2026-04-29 12:50 | 42.64536 | 18.07510 | 8966 ft | 173 kts | 126° |
| 2026-04-29 12:50 | 42.63858 | 18.08884 | 8959 ft | 173 kts | 126° |
| 2026-04-29 12:51 | 42.63202 | 18.10219 | 8963 ft | 172 kts | 126° |
| 2026-04-29 12:51 | 42.62538 | 18.11566 | 8959 ft | 172 kts | 126° |
| 2026-04-29 12:51 | 42.61871 | 18.12915 | 8962 ft | 173 kts | 126° |
| 2026-04-29 12:51 | 42.61199 | 18.14273 | 8956 ft | 173 kts | 126° |
| 2026-04-29 12:52 | 42.60530 | 18.15629 | 8961 ft | 173 kts | 126° |
| 2026-04-29 12:52 | 42.59863 | 18.16978 | 8961 ft | 172 kts | 126° |
| 2026-04-29 12:52 | 42.59197 | 18.18326 | 8959 ft | 172 kts | 126° |
| 2026-04-29 12:52 | 42.58532 | 18.19668 | 8958 ft | 171 kts | 126° |
| 2026-04-29 12:53 | 42.57868 | 18.21011 | 8965 ft | 171 kts | 126° |
| 2026-04-29 12:53 | 42.57203 | 18.22353 | 8959 ft | 172 kts | 126° |
| 2026-04-29 12:53 | 42.56534 | 18.23701 | 8968 ft | 174 kts | 126° |
| 2026-04-29 12:53 | 42.55859 | 18.25065 | 8966 ft | 175 kts | 126° |
| 2026-04-29 12:54 | 42.55180 | 18.26433 | 8960 ft | 174 kts | 126° |
| 2026-04-29 12:54 | 42.54503 | 18.27794 | 8958 ft | 174 kts | 126° |
| 2026-04-29 12:54 | 42.53832 | 18.29151 | 8963 ft | 174 kts | 126° |
| 2026-04-29 12:54 | 42.53157 | 18.30509 | 8965 ft | 174 kts | 126° |
| 2026-04-29 12:55 | 42.52478 | 18.31869 | 8967 ft | 174 kts | 125° |
| 2026-04-29 12:55 | 42.51803 | 18.33239 | 8965 ft | 176 kts | 126° |
| 2026-04-29 12:55 | 42.51119 | 18.34608 | 8963 ft | 175 kts | 126° |
| 2026-04-29 12:55 | 42.50436 | 18.35982 | 8963 ft | 176 kts | 125° |
| 2026-04-29 12:56 | 42.49765 | 18.37333 | 8962 ft | 175 kts | 126° |
| 2026-04-29 12:56 | 42.49075 | 18.38718 | 8969 ft | 177 kts | 126° |
| 2026-04-29 12:56 | 42.48394 | 18.40088 | 8963 ft | 178 kts | 125° |
| 2026-04-29 12:56 | 42.47692 | 18.41494 | 8971 ft | 179 kts | 126° |
| 2026-04-29 12:57 | 42.46987 | 18.42897 | 8970 ft | 180 kts | 126° |
| 2026-04-29 12:57 | 42.46298 | 18.44278 | 8959 ft | 178 kts | 125° |
| 2026-04-29 12:57 | 42.45605 | 18.45670 | 8973 ft | 179 kts | 126° |
| 2026-04-29 12:57 | 42.44905 | 18.47070 | 8967 ft | 179 kts | 125° |
| 2026-04-29 12:58 | 42.44214 | 18.48464 | 8988 ft | 178 kts | 126° |
| 2026-04-29 12:58 | 42.43519 | 18.49856 | 8987 ft | 179 kts | 125° |
| 2026-04-29 12:58 | 42.42826 | 18.51242 | 8982 ft | 176 kts | 125° |
| 2026-04-29 12:58 | 42.42149 | 18.52614 | 8979 ft | 174 kts | 125° |
| 2026-04-29 12:59 | 42.41471 | 18.53949 | 8985 ft | 171 kts | 126° |
| 2026-04-29 12:59 | 42.40800 | 18.55277 | 8987 ft | 171 kts | 126° |
| 2026-04-29 12:59 | 42.40133 | 18.56609 | 8987 ft | 171 kts | 125° |
| 2026-04-29 12:59 | 42.39465 | 18.57944 | 8994 ft | 172 kts | 126° |
| 2026-04-29 13:00 | 42.38790 | 18.59285 | 8987 ft | 173 kts | 125° |
| 2026-04-29 13:00 | 42.38120 | 18.60634 | 8992 ft | 173 kts | 125° |
| 2026-04-29 13:00 | 42.37439 | 18.61991 | 8997 ft | 176 kts | 125° |
| 2026-04-29 13:00 | 42.36748 | 18.63363 | 8910 ft | 178 kts | 125° |
| 2026-04-29 13:01 | 42.36063 | 18.64722 | 8897 ft | 172 kts | 125° |
| 2026-04-29 13:01 | 42.35402 | 18.66040 | 8936 ft | 166 kts | 125° |
| 2026-04-29 13:01 | 42.34759 | 18.67328 | 8986 ft | 166 kts | 125° |
| 2026-04-29 13:01 | 42.34106 | 18.68625 | 8988 ft | 168 kts | 125° |
| 2026-04-29 13:02 | 42.33447 | 18.69933 | 8985 ft | 169 kts | 125° |
| 2026-04-29 13:02 | 42.33016 | 18.71399 | 8988 ft | 170 kts | 98° |
| 2026-04-29 13:02 | 42.33104 | 18.72982 | 8986 ft | 174 kts | 70° |
| 2026-04-29 13:02 | 42.33693 | 18.74392 | 8991 ft | 173 kts | 51° |
| 2026-04-29 13:03 | 42.34408 | 18.75690 | 8985 ft | 171 kts | 50° |
| 2026-04-29 13:03 | 42.35115 | 18.76961 | 9011 ft | 167 kts | 49° |
| 2026-04-29 13:03 | 42.35816 | 18.78225 | 9017 ft | 169 kts | 50° |
| 2026-04-29 13:03 | 42.36515 | 18.79490 | 9041 ft | 168 kts | 50° |
| 2026-04-29 13:04 | 42.37211 | 18.80758 | 9039 ft | 168 kts | 50° |
| 2026-04-29 13:04 | 42.37910 | 18.82027 | 9053 ft | 170 kts | 50° |
| 2026-04-29 13:04 | 42.38623 | 18.83328 | 9037 ft | 172 kts | 50° |
| 2026-04-29 13:04 | 42.39335 | 18.84626 | 9049 ft | 173 kts | 50° |
| 2026-04-29 13:05 | 42.40054 | 18.85932 | 9047 ft | 173 kts | 50° |
| 2026-04-29 13:05 | 42.40770 | 18.87239 | 9038 ft | 172 kts | 50° |
| 2026-04-29 13:05 | 42.41479 | 18.88532 | 9045 ft | 171 kts | 50° |
| 2026-04-29 13:05 | 42.42190 | 18.89819 | 9035 ft | 170 kts | 50° |
| 2026-04-29 13:06 | 42.42899 | 18.91120 | 8823 ft | 172 kts | 51° |
| 2026-04-29 13:06 | 42.43606 | 18.92417 | 8613 ft | 169 kts | 50° |
| 2026-04-29 13:06 | 42.43841 | 18.92846 | 8545 ft | 168 kts | 50° |
| 2026-04-29 13:06 | 42.44951 | 18.94867 | 8215 ft | 162 kts | 51° |
| 2026-04-29 13:07 | 42.45623 | 18.96088 | 8011 ft | 161 kts | 50° |
| 2026-04-29 13:07 | 42.46290 | 18.97318 | 7828 ft | 165 kts | 55° |
| 2026-04-29 13:07 | 42.46678 | 18.98783 | 7623 ft | 167 kts | 83° |
| 2026-04-29 13:07 | 42.46554 | 19.00337 | 7414 ft | 167 kts | 110° |
| 2026-04-29 13:08 | 42.46111 | 19.01793 | 7221 ft | 167 kts | 115° |
| 2026-04-29 13:08 | 42.45659 | 19.03220 | 7010 ft | 162 kts | 115° |
| 2026-04-29 13:08 | 42.45209 | 19.04603 | 6826 ft | 161 kts | 115° |
| 2026-04-29 13:08 | 42.44771 | 19.06002 | 6640 ft | 161 kts | 114° |
| 2026-04-29 13:09 | 42.44335 | 19.07397 | 6436 ft | 160 kts | 115° |
| 2026-04-29 13:09 | 42.43900 | 19.08779 | 6224 ft | 157 kts | 115° |
| 2026-04-29 13:09 | 42.43479 | 19.10111 | 6022 ft | 152 kts | 115° |
| 2026-04-29 13:09 | 42.43323 | 19.10611 | 5948 ft | 152 kts | 115° |
| 2026-04-29 13:10 | 42.43128 | 19.11238 | 5856 ft | 147 kts | 115° |
| 2026-04-29 13:10 | 42.42726 | 19.12507 | 5640 ft | 146 kts | 116° |
| 2026-04-29 13:10 | 42.42325 | 19.13760 | 5445 ft | 144 kts | 115° |
| 2026-04-29 13:11 | 42.41931 | 19.15006 | 5250 ft | 144 kts | 116° |
| 2026-04-29 13:11 | 42.41532 | 19.16274 | 5056 ft | 148 kts | 115° |
| 2026-04-29 13:11 | 42.41122 | 19.17563 | 4853 ft | 149 kts | 116° |
| 2026-04-29 13:11 | 42.40715 | 19.18838 | 4659 ft | 147 kts | 116° |
| 2026-04-29 13:12 | 42.40312 | 19.20102 | 4457 ft | 146 kts | 116° |
| 2026-04-29 13:12 | 42.39917 | 19.21352 | 4254 ft | 144 kts | 116° |
| 2026-04-29 13:12 | 42.39526 | 19.22592 | 4050 ft | 142 kts | 116° |
| 2026-04-29 13:12 | 42.39144 | 19.23806 | 3854 ft | 139 kts | 115° |
| 2026-04-29 13:13 | 42.38771 | 19.25019 | 3651 ft | 138 kts | 115° |
| 2026-04-29 13:13 | 42.38308 | 19.26120 | 3532 ft | 130 kts | 140° |
| 2026-04-29 13:13 | 42.37512 | 19.26562 | 3512 ft | 124 kts | 172° |
| 2026-04-29 13:13 | 42.36669 | 19.26766 | 3485 ft | 124 kts | 173° |
| 2026-04-29 13:14 | 42.35821 | 19.26963 | 3430 ft | 127 kts | 173° |
| 2026-04-29 13:14 | 42.34961 | 19.27146 | 3400 ft | 124 kts | 173° |
| 2026-04-29 13:14 | 42.34109 | 19.27318 | 3279 ft | 124 kts | 173° |
| 2026-04-29 13:14 | 42.33269 | 19.27505 | 3147 ft | 120 kts | 172° |
| 2026-04-29 13:15 | 42.32442 | 19.27686 | 3046 ft | 122 kts | 173° |
| 2026-04-29 13:15 | 42.31600 | 19.27859 | 2949 ft | 123 kts | 173° |
| 2026-04-29 13:15 | 42.30761 | 19.28065 | 2792 ft | 125 kts | 171° |
| 2026-04-29 13:15 | 42.29892 | 19.28265 | 2614 ft | 128 kts | 172° |
| 2026-04-29 13:16 | 42.29020 | 19.28458 | 2436 ft | 125 kts | 172° |
| 2026-04-29 13:16 | 42.28165 | 19.28649 | 2246 ft | 124 kts | 173° |
| 2026-04-29 13:16 | 42.27314 | 19.28851 | 2167 ft | 125 kts | 173° |
| 2026-04-29 13:16 | 42.26458 | 19.28796 | 1950 ft | 125 kts | 204° |
| 2026-04-29 13:17 | 42.25855 | 19.27983 | 1770 ft | 126 kts | 246° |
| 2026-04-29 13:17 | 42.25869 | 19.26799 | 1568 ft | 133 kts | 291° |
| 2026-04-29 13:17 | 42.26527 | 19.25935 | 1380 ft | 136 kts | 332° |
| 2026-04-29 13:17 | 42.27377 | 19.25415 | 1218 ft | 134 kts | 335° |
| 2026-04-29 13:18 | 42.28232 | 19.24939 | 1157 ft | 131 kts | 336° |
| 2026-04-29 13:18 | 42.29103 | 19.24612 | 1255 ft | 135 kts | 2° |
| 2026-04-29 13:18 | 42.30002 | 19.24651 | 1119 ft | 122 kts | 3° |
| 2026-04-29 13:18 | 42.30818 | 19.24678 | 980 ft | 114 kts | 4° |
| 2026-04-29 13:19 | 42.31594 | 19.24745 | 862 ft | 111 kts | 8° |
| 2026-04-29 13:19 | 42.32364 | 19.24894 | 714 ft | 110 kts | 19° |
| 2026-04-29 13:19 | 42.33011 | 19.25366 | 748 ft | 109 kts | 35° |
| 2026-04-29 13:19 | 42.33692 | 19.25935 | 736 ft | 119 kts | 35° |
| 2026-04-29 13:20 | 42.34413 | 19.26526 | 691 ft | 124 kts | 33° |
| 2026-04-29 13:20 | 42.35130 | 19.27144 | 717 ft | 121 kts | 35° |
| 2026-04-29 13:20 | 42.35842 | 19.27757 | 739 ft | 123 kts | 34° |
| 2026-04-29 13:20 | 42.36568 | 19.28397 | 769 ft | 124 kts | 37° |
| 2026-04-29 13:21 | 42.37356 | 19.28855 | 790 ft | 127 kts | 8° |
| 2026-04-29 13:21 | 42.38232 | 19.28992 | 816 ft | 129 kts | 5° |
| 2026-04-29 13:21 | 42.39107 | 19.28996 | 816 ft | 124 kts | 343° |
| 2026-04-29 13:21 | 42.39746 | 19.28339 | 801 ft | 114 kts | 296° |
| 2026-04-29 13:22 | 42.39915 | 19.27321 | 788 ft | 111 kts | 271° |
| 2026-04-29 13:22 | 42.39877 | 19.26356 | 830 ft | 101 kts | 244° |
| 2026-04-29 13:22 | 42.39392 | 19.25695 | 668 ft | 102 kts | 207° |
| 2026-04-29 13:22 | 42.38733 | 19.25483 | 528 ft | 93 kts | 186° |
| 2026-04-29 13:23 | 42.38096 | 19.25403 | 415 ft | 87 kts | 184° |
| 2026-04-29 13:23 | 42.37526 | 19.25348 | 290 ft | 79 kts | 184° |
| 2026-04-29 13:23 | 42.36960 | 19.25288 | 151 ft | 83 kts | 181° |
| 2026-04-29 13:23 | 42.36475 | 19.25241 | 119 ft | 51 kts | 184° |
| 2026-04-29 13:24 | 42.36198 | 19.25214 | 112 ft | 31 kts | 185° |
| 2026-04-29 13:24 | 42.36047 | 19.25196 | 108 ft | 17 kts | 185° |
| 2026-04-29 13:24 | 42.35987 | 19.25115 | 107 ft | 13 kts | 272° |
| 2026-04-29 13:24 | 42.35992 | 19.25028 | 108 ft | 5 kts | 274° |
| 2026-04-29 13:25 | 42.35993 | 19.25010 | 108 ft | 0 kts | 273° |
| 2026-04-29 13:26 | 42.35997 | 19.24969 | 108 ft | 8 kts | 293° |
| 2026-04-29 13:26 | 42.36057 | 19.24954 | 109 ft | 11 kts | 4° |
| 2026-04-29 13:27 | 42.36139 | 19.24963 | 110 ft | 13 kts | 5° |
| 2026-04-29 13:27 | 42.36241 | 19.24972 | 112 ft | 16 kts | 3° |
| 2026-04-29 13:27 | 42.36361 | 19.24985 | 114 ft | 18 kts | 4° |
| 2026-04-29 13:27 | 42.36492 | 19.24998 | 115 ft | 18 kts | 5° |
| 2026-04-29 13:28 | 42.36601 | 19.25007 | 116 ft | 14 kts | 347° |
| 2026-04-29 13:28 | 42.36630 | 19.24895 | 118 ft | 14 kts | 280° |
| 2026-04-29 13:28 | 42.36608 | 19.24820 | 118 ft | 8 kts | 188° |
| 2026-04-29 13:28 | 42.36574 | 19.24806 | 117 ft | 3 kts | 257° |
| 2026-04-29 13:29 | 42.36574 | 19.24799 | 117 ft | 0 kts | 270° |